Time;durP1;ratioP1;P1;durP2;ratioP2;P2;SDS_P1;SDS_P2;PMS_P1;PMS_P2;Temp;Humidity;BMP_temperature;BMP_pressure;BME280_temperature;BME280_humidity;BME280_pressure;Samples;Min_cycle;Max_cycle;Signal;HPM_P1;HPM_P2
2023/01/01 00:01:56;;;;;;;;;;;;;;;14.66;63.78;100709.66;5081799;28;20363;-64
2023/01/01 00:04:22;;;;;;;;;;;;;;;14.67;63.90;100720.13;5081588;28;20023;-63
2023/01/01 00:06:47;;;;;;;;;;;;;;;14.68;63.47;100723.66;5081203;28;19920;-65
2023/01/01 00:11:56;;;;;;;;;;;;;;;14.71;63.54;100736.69;5080330;28;20002;-65
2023/01/01 00:14:21;;;;;;;;;;;;;;;14.72;63.65;100731.25;5071029;28;20006;-64
2023/01/01 00:16:47;;;;;;;;;;;;;;;14.71;63.88;100726.09;5069153;28;19963;-64
2023/01/01 00:19:12;;;;;;;;;;;;;;;14.70;63.95;100740.28;5074205;28;19916;-64
2023/01/01 00:21:38;;;;;;;;;;;;;;;14.67;63.84;100746.59;5060577;28;19920;-65
2023/01/01 00:24:05;;;;;;;;;;;;;;;14.64;63.77;100737.09;5082455;28;19916;-65
2023/01/01 00:26:31;;;;;;;;;;;;;;;14.62;64.02;100744.31;5078251;28;20327;-63
2023/01/01 00:28:56;;;;;;;;;;;;;;;14.61;64.34;100742.63;5081324;28;19920;-63
2023/01/01 00:31:21;;;;;;;;;;;;;;;14.58;63.87;100742.88;5083153;28;19944;-63
2023/01/01 00:33:51;;;;;;;;;;;;;;;14.57;64.08;100746.47;5085723;28;20627;-64
2023/01/01 00:36:17;;;;;;;;;;;;;;;14.55;64.00;100758.97;5082911;28;19921;-64
2023/01/01 00:38:43;;;;;;;;;;;;;;;14.54;64.31;100759.94;5076767;28;19920;-65
2023/01/01 00:41:09;;;;;;;;;;;;;;;14.53;64.27;100766.19;5083298;28;19924;-62
2023/01/01 00:43:35;;;;;;;;;;;;;;;14.51;63.82;100762.81;5082268;28;19965;-63
2023/01/01 00:46:01;;;;;;;;;;;;;;;14.51;64.28;100767.28;5082055;28;19962;-63
2023/01/01 00:48:26;;;;;;;;;;;;;;;14.51;64.03;100756.69;5084152;28;19964;-64
2023/01/01 00:50:52;;;;;;;;;;;;;;;14.51;64.10;100768.09;5084411;28;20426;-63
2023/01/01 00:53:18;;;;;;;;;;;;;;;14.51;63.63;100765.44;5083100;28;20471;-63
2023/01/01 00:55:43;;;;;;;;;;;;;;;14.50;63.16;100768.22;5085183;28;19927;-65
2023/01/01 00:58:09;;;;;;;;;;;;;;;14.49;62.91;100772.66;5083671;28;19920;-63
2023/01/01 01:00:35;;;;;;;;;;;;;;;14.50;62.69;100761.13;5087324;28;19920;-65
2023/01/01 01:03:01;;;;;;;;;;;;;;;14.52;62.91;100774.25;5085195;28;19930;-65
2023/01/01 01:05:26;;;;;;;;;;;;;;;14.51;62.71;100781.34;5087171;28;20061;-66
2023/01/01 01:07:52;;;;;;;;;;;;;;;14.52;62.35;100776.91;5084000;28;20013;-65
2023/01/01 01:10:20;;;;;;;;;;;;;;;14.52;61.94;100771.59;5089391;28;19923;-65
2023/01/01 01:12:45;;;;;;;;;;;;;;;14.57;62.30;100787.97;5082231;28;19912;-65
2023/01/01 01:15:10;;;;;;;;;;;;;;;14.57;61.90;100787.97;5078986;28;21586;-65
2023/01/01 01:17:36;;;;;;;;;;;;;;;14.57;61.34;100790.63;5080298;28;19920;-61
2023/01/01 01:20:01;;;;;;;;;;;;;;;14.57;61.68;100783.53;5080245;28;19979;-65
2023/01/01 01:22:26;;;;;;;;;;;;;;;14.58;61.49;100790.53;5084120;28;20300;-66
2023/01/01 01:24:52;;;;;;;;;;;;;;;14.57;61.50;100791.50;5084056;28;20256;-65
2023/01/01 01:27:17;;;;;;;;;;;;;;;14.54;60.97;100790.84;5086029;28;19966;-65
2023/01/01 01:29:42;;;;;;;;;;;;;;;14.54;61.65;100794.34;5084448;28;20035;-65
2023/01/01 01:32:09;;;;;;;;;;;;;;;14.52;61.53;100798.91;5087037;28;20321;-64
2023/01/01 01:34:34;;;;;;;;;;;;;;;14.50;61.43;100786.75;5084655;28;19928;-63
2023/01/01 01:36:59;;;;;;;;;;;;;;;14.48;61.60;100794.78;5086513;28;19920;-65
2023/01/01 01:39:25;;;;;;;;;;;;;;;14.46;61.69;100792.28;5087158;28;20002;-65
2023/01/01 01:41:50;;;;;;;;;;;;;;;14.45;61.35;100800.31;5084354;28;19921;-63
2023/01/01 01:44:34;;;;;;;;;;;;;;;14.45;61.44;100795.88;5090334;28;19920;-65
2023/01/01 01:47:00;;;;;;;;;;;;;;;14.45;61.23;100795.88;5084742;28;19920;-65
2023/01/01 01:49:29;;;;;;;;;;;;;;;14.46;61.27;100799.34;5086395;28;19917;-66
2023/01/01 01:51:55;;;;;;;;;;;;;;;14.47;61.27;100803.69;5083399;28;19986;-62
2023/01/01 01:54:22;;;;;;;;;;;;;;;14.48;61.54;100800.94;5087436;28;20405;-64
2023/01/01 01:56:50;;;;;;;;;;;;;;;14.50;61.07;100797.34;5072975;28;19946;-63
2023/01/01 01:59:16;;;;;;;;;;;;;;;14.51;61.06;100799.03;5080514;28;20011;-64
2023/01/01 02:01:42;;;;;;;;;;;;;;;14.51;60.61;100797.22;5083870;28;19920;-65
2023/01/01 02:04:07;;;;;;;;;;;;;;;14.51;60.77;100794.56;5081460;28;20307;-63
2023/01/01 02:06:33;;;;;;;;;;;;;;;14.48;60.59;100808.03;5063878;28;19916;-65
2023/01/01 02:09:00;;;;;;;;;;;;;;;14.49;60.94;100791.19;5078715;28;20391;-65
2023/01/01 02:11:26;;;;;;;;;;;;;;;14.46;60.72;100791.41;5082950;28;19924;-65
2023/01/01 02:13:53;;;;;;;;;;;;;;;14.44;60.76;100788.06;5079683;28;19942;-65
2023/01/01 02:16:24;;;;;;;;;;;;;;;14.39;60.78;100788.38;5088235;28;20006;-65
2023/01/01 02:18:55;;;;;;;;;;;;;;;14.33;60.73;100802.91;5082191;28;20026;-63
2023/01/01 02:21:30;;;;;;;;;;;;;;;14.30;60.94;100797.81;5083915;28;19916;-65
2023/01/01 02:23:59;;;;;;;;;;;;;;;14.25;60.68;100805.28;5087312;28;19924;-65
2023/01/01 02:26:24;;;;;;;;;;;;;;;14.21;60.76;100808.25;5083556;28;19912;-65
2023/01/01 02:28:55;;;;;;;;;;;;;;;14.18;60.62;100811.94;5084957;28;19923;-62
2023/01/01 02:31:26;;;;;;;;;;;;;;;14.17;60.69;100818.19;5084629;28;19924;-62
2023/01/01 02:33:54;;;;;;;;;;;;;;;14.15;60.82;100820.09;5078632;28;19971;-66
2023/01/01 02:36:21;;;;;;;;;;;;;;;14.14;60.59;100815.78;5083229;28;19924;-62
2023/01/01 02:38:49;;;;;;;;;;;;;;;14.12;60.53;100815.06;5082056;28;19928;-63
2023/01/01 02:41:19;;;;;;;;;;;;;;;14.12;60.63;100825.66;5083041;28;20058;-64
2023/01/01 02:43:45;;;;;;;;;;;;;;;14.12;60.44;100831.75;5086068;28;19971;-64
2023/01/01 02:46:11;;;;;;;;;;;;;;;14.13;60.55;100829.97;5083144;28;20019;-62
2023/01/01 02:48:41;;;;;;;;;;;;;;;14.15;60.63;100817.47;5086291;28;19924;-63
2023/01/01 02:51:41;;;;;;;;;;;;;;;14.18;60.43;100814.59;5081836;28;20394;-64
2023/01/01 02:54:15;;;;;;;;;;;;;;;14.21;60.04;100817.03;5007755;28;19921;-65
2023/01/01 02:56:54;;;;;;;;;;;;;;;14.25;60.22;100815.88;5081898;28;20093;-67
2023/01/01 03:02:06;;;;;;;;;;;;;;;14.29;59.78;100805.88;5086063;28;20335;-67
2023/01/01 03:04:39;;;;;;;;;;;;;;;14.32;59.76;100809.16;5081393;28;19920;-67
2023/01/01 03:07:23;;;;;;;;;;;;;;;14.33;59.54;100797.59;5085596;28;19924;-66
2023/01/01 03:09:55;;;;;;;;;;;;;;;14.37;59.41;100786.81;5081740;28;19925;-64
2023/01/01 03:12:24;;;;;;;;;;;;;;;14.38;59.09;100783.19;5082019;28;20009;-64
2023/01/01 03:14:57;;;;;;;;;;;;;;;14.40;59.21;100776.81;5083097;28;20054;-64
2023/01/01 03:17:25;;;;;;;;;;;;;;;14.41;59.03;100772.41;5084594;28;19994;-62
2023/01/01 03:19:52;;;;;;;;;;;;;;;14.42;58.88;100776.72;5080053;28;19994;-66
2023/01/01 03:22:20;;;;;;;;;;;;;;;14.43;58.96;100776.59;5083813;28;20367;-66
2023/01/01 03:25:00;;;;;;;;;;;;;;;14.44;58.90;100782.75;5085155;28;19912;-63
2023/01/01 03:27:41;;;;;;;;;;;;;;;14.46;58.68;100778.19;5080795;28;19916;-64
2023/01/01 03:30:08;;;;;;;;;;;;;;;14.46;58.50;100786.13;5085342;28;19940;-63
2023/01/01 03:35:24;;;;;;;;;;;;;;;14.47;58.30;100793.09;5088419;28;19971;-64
2023/01/01 03:37:51;;;;;;;;;;;;;;;14.48;58.07;100803.59;5082331;28;19951;-66
2023/01/01 03:40:18;;;;;;;;;;;;;;;14.49;58.04;100799.13;5082224;28;19920;-64
2023/01/01 03:42:48;;;;;;;;;;;;;;;14.50;58.04;100802.66;5086473;28;19916;-66
2023/01/01 03:45:13;;;;;;;;;;;;;;;14.48;57.63;100790.38;5079244;28;19917;-66
2023/01/01 03:47:38;;;;;;;;;;;;;;;14.50;57.71;100808.78;5079725;28;19920;-64
2023/01/01 03:50:04;;;;;;;;;;;;;;;14.48;57.62;100810.69;5084114;28;20047;-64
2023/01/01 03:52:48;;;;;;;;;;;;;;;14.50;57.92;100822.00;5083759;28;19963;-65
2023/01/01 03:55:23;;;;;;;;;;;;;;;14.48;57.58;100819.50;5085668;28;20376;-63
2023/01/01 03:57:54;;;;;;;;;;;;;;;14.45;57.28;100822.34;5081238;28;19967;-66
2023/01/01 04:00:20;;;;;;;;;;;;;;;14.44;57.46;100825.13;5085505;28;20606;-62
2023/01/01 04:03:04;;;;;;;;;;;;;;;14.40;57.67;100835.06;5085099;28;19959;-61
2023/01/01 04:05:31;;;;;;;;;;;;;;;14.39;57.74;100838.66;5085870;28;20521;-64
2023/01/01 04:07:59;;;;;;;;;;;;;;;14.39;57.56;100827.25;5086159;28;19912;-65
2023/01/01 04:10:27;;;;;;;;;;;;;;;14.39;57.50;100832.53;5083076;28;20011;-64
2023/01/01 04:12:54;;;;;;;;;;;;;;;14.41;57.31;100831.47;5081996;28;19920;-63
2023/01/01 04:15:21;;;;;;;;;;;;;;;14.45;57.28;100838.25;5083698;28;19969;-67
2023/01/01 04:17:46;;;;;;;;;;;;;;;14.48;57.12;100819.50;5080820;28;19939;-65
2023/01/01 04:20:12;;;;;;;;;;;;;;;14.51;57.13;100842.25;5086638;28;19917;-64
2023/01/01 04:22:38;;;;;;;;;;;;;;;14.53;57.11;100837.69;5082365;28;20358;-66
2023/01/01 04:25:03;;;;;;;;;;;;;;;14.53;56.86;100840.31;5086288;28;19923;-64
2023/01/01 04:27:29;;;;;;;;;;;;;;;14.52;56.83;100853.69;5084497;28;19919;-63
2023/01/01 04:29:54;;;;;;;;;;;;;;;14.52;56.95;100843.94;5085290;28;19960;-64
2023/01/01 04:32:19;;;;;;;;;;;;;;;14.55;56.72;100859.59;5089389;28;19938;-64
2023/01/01 04:34:45;;;;;;;;;;;;;;;14.57;56.89;100848.88;5077149;28;20026;-66
2023/01/01 04:37:10;;;;;;;;;;;;;;;14.54;56.77;100852.59;5089521;28;19928;-62
2023/01/01 04:39:35;;;;;;;;;;;;;;;14.53;56.61;100856.22;5089225;28;19916;-64
2023/01/01 04:42:01;;;;;;;;;;;;;;;14.52;56.57;100862.47;5083974;28;20393;-64
2023/01/01 04:44:26;;;;;;;;;;;;;;;14.51;56.71;100866.06;5082938;28;19928;-64
2023/01/01 04:46:51;;;;;;;;;;;;;;;14.52;56.81;100864.28;5086294;28;19928;-65
2023/01/01 04:49:17;;;;;;;;;;;;;;;14.53;57.03;100874.75;5090004;28;20007;-64
2023/01/01 04:51:42;;;;;;;;;;;;;;;14.51;56.82;100866.06;5087719;28;19916;-65
2023/01/01 04:54:07;;;;;;;;;;;;;;;14.52;56.87;100875.69;5084850;28;20364;-65
2023/01/01 04:56:33;;;;;;;;;;;;;;;14.52;56.87;100869.56;5088512;28;19912;-64
2023/01/01 04:58:58;;;;;;;;;;;;;;;14.52;56.90;100875.69;5082311;28;20600;-65
2023/01/01 05:01:27;;;;;;;;;;;;;;;14.51;56.96;100879.31;5083511;28;19931;-64
2023/01/01 05:03:53;;;;;;;;;;;;;;;14.52;56.75;100880.16;5082091;28;19967;-61
2023/01/01 05:06:19;;;;;;;;;;;;;;;14.52;56.90;100888.94;5081432;28;19959;-66
2023/01/01 05:08:47;;;;;;;;;;;;;;;14.53;56.86;100887.97;5083139;28;20427;-65
2023/01/01 05:11:14;;;;;;;;;;;;;;;14.51;56.82;100884.59;5087433;28;19912;-62
2023/01/01 05:13:41;;;;;;;;;;;;;;;14.51;56.71;100875.81;5078680;28;19928;-64
2023/01/01 05:16:08;;;;;;;;;;;;;;;14.50;56.60;100882.06;5084991;28;19916;-65
2023/01/01 05:18:33;;;;;;;;;;;;;;;14.49;56.65;100881.22;5085711;28;19959;-62
2023/01/01 05:21:00;;;;;;;;;;;;;;;14.51;56.67;100883.75;5081759;28;19977;-65
2023/01/01 05:23:25;;;;;;;;;;;;;;;14.50;56.42;100887.38;5088087;28;19923;-64
2023/01/01 05:25:50;;;;;;;;;;;;;;;14.51;56.44;100889.91;5085415;28;19920;-65
2023/01/01 05:28:16;;;;;;;;;;;;;;;14.51;56.61;100894.34;5066419;28;19928;-64
2023/01/01 05:30:41;;;;;;;;;;;;;;;14.51;56.62;100895.19;5077941;28;20003;-65
2023/01/01 05:33:06;;;;;;;;;;;;;;;14.52;56.51;100891.59;5087055;28;19924;-65
2023/01/01 05:35:32;;;;;;;;;;;;;;;14.51;56.50;100889.91;5085080;28;20004;-62
2023/01/01 05:37:57;;;;;;;;;;;;;;;14.50;56.28;100882.91;5064986;28;20288;-64
2023/01/01 05:40:22;;;;;;;;;;;;;;;14.52;56.24;100885.47;5086495;28;19919;-66
2023/01/01 05:42:48;;;;;;;;;;;;;;;14.50;56.50;100888.19;5083210;28;19939;-64
2023/01/01 05:45:13;;;;;;;;;;;;;;;14.49;56.26;100899.75;5082786;28;19926;-65
2023/01/01 05:47:38;;;;;;;;;;;;;;;14.46;56.39;100902.59;5084022;28;19934;-62
2023/01/01 05:50:04;;;;;;;;;;;;;;;14.45;56.21;100898.25;5081440;28;20276;-65
2023/01/01 05:52:29;;;;;;;;;;;;;;;14.45;56.44;100898.25;5083245;28;19938;-64
2023/01/01 05:54:57;;;;;;;;;;;;;;;14.44;56.23;100897.44;5082605;28;20007;-63
2023/01/01 05:57:22;;;;;;;;;;;;;;;14.43;56.06;100898.38;5082663;28;19928;-64
2023/01/01 05:59:47;;;;;;;;;;;;;;;14.41;56.14;100895.00;5087631;28;19926;-65
2023/01/01 06:02:13;;;;;;;;;;;;;;;14.41;55.86;100891.53;5080648;28;20010;-62
2023/01/01 06:04:38;;;;;;;;;;;;;;;14.42;55.88;100887.91;5083885;28;19920;-65
2023/01/01 06:07:03;;;;;;;;;;;;;;;14.42;55.92;100899.34;5084238;28;19912;-66
2023/01/01 06:09:28;;;;;;;;;;;;;;;14.44;55.68;100883.38;5083970;28;19925;-64
2023/01/01 06:11:54;;;;;;;;;;;;;;;14.43;55.40;100882.50;5081065;28;19947;-61
2023/01/01 06:14:19;;;;;;;;;;;;;;;14.45;55.42;100888.53;5085988;28;19920;-64
2023/01/01 06:16:44;;;;;;;;;;;;;;;14.47;55.26;100891.06;5085483;28;20291;-66
2023/01/01 06:19:10;;;;;;;;;;;;;;;14.50;55.25;100887.38;5084106;28;20019;-65
2023/01/01 06:21:35;;;;;;;;;;;;;;;14.49;55.15;100889.16;5084253;28;20010;-64
2023/01/01 06:24:00;;;;;;;;;;;;;;;14.50;55.16;100895.31;5087414;28;19916;-63
2023/01/01 06:26:30;;;;;;;;;;;;;;;14.50;54.99;100904.09;5082838;28;20009;-66
2023/01/01 06:28:56;;;;;;;;;;;;;;;14.50;54.79;100898.78;5081241;28;19920;-65
2023/01/01 06:31:21;;;;;;;;;;;;;;;14.49;54.80;100897.09;5084122;28;20068;-65
2023/01/01 06:33:47;;;;;;;;;;;;;;;14.49;54.83;100897.09;5063451;28;20410;-64
2023/01/01 06:36:13;;;;;;;;;;;;;;;14.49;54.75;100897.09;5086034;28;20334;-64
2023/01/01 06:38:43;;;;;;;;;;;;;;;14.50;54.65;100913.84;5081477;28;19944;-70
2023/01/01 06:41:16;;;;;;;;;;;;;;;14.48;54.62;100901.56;5080669;28;21424;-65
2023/01/01 06:43:41;;;;;;;;;;;;;;;14.49;54.56;100920.94;5083236;28;19939;-65
2023/01/01 06:46:13;;;;;;;;;;;;;;;14.50;54.66;100917.31;5079306;28;19920;-66
2023/01/01 06:48:38;;;;;;;;;;;;;;;14.50;54.63;100919.97;5081168;28;19928;-65
2023/01/01 06:51:08;;;;;;;;;;;;;;;14.50;54.68;100919.13;5067127;28;19969;-65
2023/01/01 06:53:34;;;;;;;;;;;;;;;14.49;54.64;100915.63;5085567;28;20003;-64
2023/01/01 06:55:59;;;;;;;;;;;;;;;14.48;54.54;100917.44;5081220;28;20018;-63
2023/01/01 06:58:24;;;;;;;;;;;;;;;14.47;54.37;100918.41;5077650;28;19935;-64
2023/01/01 07:00:49;;;;;;;;;;;;;;;14.48;54.70;100911.28;5081050;28;19916;-66
2023/01/01 07:03:15;;;;;;;;;;;;;;;14.48;54.78;100909.50;5076713;28;19927;-65
2023/01/01 07:05:40;;;;;;;;;;;;;;;14.48;54.79;100927.16;5081860;28;19924;-63
2023/01/01 07:08:05;;;;;;;;;;;;;;;14.45;54.52;100917.66;5080601;28;19920;-65
2023/01/01 07:10:31;;;;;;;;;;;;;;;14.43;54.62;100924.84;5080055;28;20061;-64
2023/01/01 07:12:56;;;;;;;;;;;;;;;14.44;54.83;100936.31;5080011;28;19924;-66
2023/01/01 07:15:21;;;;;;;;;;;;;;;14.42;54.71;100948.81;5082160;28;20065;-64
2023/01/01 07:17:46;;;;;;;;;;;;;;;14.41;54.70;100952.41;5078129;28;19931;-64
2023/01/01 07:20:12;;;;;;;;;;;;;;;14.38;54.69;100944.69;5083145;28;19923;-64
2023/01/01 07:22:38;;;;;;;;;;;;;;;14.38;54.87;100952.63;5086409;28;19912;-64
2023/01/01 07:25:04;;;;;;;;;;;;;;;14.37;55.10;100966.81;5081895;28;19985;-64
2023/01/01 07:27:29;;;;;;;;;;;;;;;14.36;55.03;100971.28;5082234;28;20292;-63
2023/01/01 07:29:55;;;;;;;;;;;;;;;14.37;55.10;100970.28;5086670;28;19916;-65
2023/01/01 07:32:20;;;;;;;;;;;;;;;14.37;55.16;100990.63;5077269;28;20007;-67
2023/01/01 07:34:45;;;;;;;;;;;;;;;14.39;55.06;100986.91;5087080;28;19924;-64
2023/01/01 07:37:11;;;;;;;;;;;;;;;14.39;55.09;100994.84;5084059;28;19962;-66
2023/01/01 07:39:36;;;;;;;;;;;;;;;14.40;55.16;101014.25;5067894;28;19927;-65
2023/01/01 07:42:01;;;;;;;;;;;;;;;14.40;55.04;101019.53;5080816;28;20530;-65
2023/01/01 07:44:26;;;;;;;;;;;;;;;14.41;55.13;101013.28;5084364;28;20007;-64
2023/01/01 07:47:00;;;;;;;;;;;;;;;14.39;55.09;101010.75;5081596;28;19927;-65
2023/01/01 07:49:25;;;;;;;;;;;;;;;14.40;55.09;101008.94;5086781;28;19977;-63
2023/01/01 07:51:51;;;;;;;;;;;;;;;14.38;55.27;101010.84;5084358;28;20334;-66
2023/01/01 07:54:16;;;;;;;;;;;;;;;14.38;55.35;101000.28;5083243;28;20388;-66
2023/01/01 07:56:41;;;;;;;;;;;;;;;14.39;55.37;101007.25;5087261;28;19967;-63
2023/01/01 07:59:06;;;;;;;;;;;;;;;14.40;55.31;101015.06;5087541;28;19924;-66
2023/01/01 08:01:34;;;;;;;;;;;;;;;14.36;55.49;101024.22;5084353;28;19924;-63
2023/01/01 08:03:59;;;;;;;;;;;;;;;14.35;55.60;101019.88;5087632;28;19939;-61
2023/01/01 08:06:24;;;;;;;;;;;;;;;14.29;55.37;101039.63;5088370;28;19916;-63
2023/01/01 08:08:50;;;;;;;;;;;;;;;14.29;55.73;101029.06;5087648;28;20452;-65
2023/01/01 08:11:15;;;;;;;;;;;;;;;14.27;55.59;101032.78;5070148;28;19922;-62
2023/01/01 08:13:40;;;;;;;;;;;;;;;14.25;55.71;101030.25;5091311;28;20350;-64
2023/01/01 08:16:06;;;;;;;;;;;;;;;14.23;55.73;101045.38;5086899;28;19917;-65
2023/01/01 08:18:31;;;;;;;;;;;;;;;14.22;55.74;101043.69;5076812;28;19924;-65
2023/01/01 08:20:56;;;;;;;;;;;;;;;14.21;56.00;101034.03;5085659;28;20015;-62
2023/01/01 08:23:22;;;;;;;;;;;;;;;14.20;55.83;101035.00;5080406;28;19982;-66
2023/01/01 08:25:48;;;;;;;;;;;;;;;14.21;55.86;101047.28;5082644;28;20379;-64
2023/01/01 08:28:13;;;;;;;;;;;;;;;14.23;56.04;101055.97;5074898;28;19968;-64
2023/01/01 08:30:38;;;;;;;;;;;;;;;14.23;55.81;101069.19;5087371;28;19978;-65
2023/01/01 08:33:03;;;;;;;;;;;;;;;14.25;56.01;101072.59;5089619;28;19924;-65
2023/01/01 08:35:29;;;;;;;;;;;;;;;14.23;55.87;101055.97;5078817;28;19996;-65
2023/01/01 08:37:54;;;;;;;;;;;;;;;14.22;55.98;101054.25;5072896;28;20284;-65
2023/01/01 08:40:19;;;;;;;;;;;;;;;14.23;56.20;101066.53;5079268;28;20367;-64
2023/01/01 08:42:45;;;;;;;;;;;;;;;14.22;56.19;101075.44;5085376;28;19916;-65
2023/01/01 08:45:10;;;;;;;;;;;;;;;14.21;56.21;101062.31;5087203;28;19939;-64
2023/01/01 08:47:35;;;;;;;;;;;;;;;14.20;56.21;101056.16;5086397;28;19916;-65
2023/01/01 08:50:01;;;;;;;;;;;;;;;14.22;56.29;101056.91;5084860;28;19916;-64
2023/01/01 08:52:26;;;;;;;;;;;;;;;14.23;56.30;101070.97;5085073;28;19919;-65
2023/01/01 08:54:51;;;;;;;;;;;;;;;14.26;56.38;101084.88;5084573;28;20357;-63
2023/01/01 08:57:17;;;;;;;;;;;;;;;14.31;56.25;101084.56;5085408;28;19916;-62
2023/01/01 08:59:42;;;;;;;;;;;;;;;14.32;55.96;101060.63;5078205;28;19931;-64
2023/01/01 09:02:08;;;;;;;;;;;;;;;14.37;56.13;101080.63;5082845;28;19939;-64
2023/01/01 09:04:34;;;;;;;;;;;;;;;14.40;56.05;101078.63;5079368;28;19916;-66
2023/01/01 09:06:59;;;;;;;;;;;;;;;14.42;55.95;101078.53;5085426;28;19916;-66
2023/01/01 09:09:24;;;;;;;;;;;;;;;14.44;55.78;101080.09;5084308;28;20341;-65
2023/01/01 09:11:50;;;;;;;;;;;;;;;14.49;55.88;101090.38;5081286;28;19927;-64
2023/01/01 09:14:16;;;;;;;;;;;;;;;14.51;55.68;101093.78;5081206;28;20280;-65
2023/01/01 09:16:41;;;;;;;;;;;;;;;14.56;55.63;101102.25;5083274;28;19935;-65
2023/01/01 09:19:06;;;;;;;;;;;;;;;14.60;55.54;101111.66;5082893;28;19974;-65
2023/01/01 09:21:32;;;;;;;;;;;;;;;14.66;55.50;101109.56;5082796;28;19924;-65
2023/01/01 09:23:57;;;;;;;;;;;;;;;14.69;55.57;101119.97;5081786;28;19963;-65
2023/01/01 09:26:22;;;;;;;;;;;;;;;14.73;55.36;101117.00;5085683;28;19928;-64
2023/01/01 09:28:48;;;;;;;;;;;;;;;14.76;55.14;101115.94;5062713;28;21042;-65
2023/01/01 09:31:13;;;;;;;;;;;;;;;14.81;54.98;101131.53;5068632;28;19995;-66
2023/01/01 09:33:43;;;;;;;;;;;;;;;14.84;54.97;101128.63;5085492;28;20013;-65
2023/01/01 09:36:12;;;;;;;;;;;;;;;14.89;55.03;101148.59;5078632;28;19920;-65
2023/01/01 09:38:37;;;;;;;;;;;;;;;14.93;54.98;101144.75;5085783;28;20014;-65
2023/01/01 09:41:13;;;;;;;;;;;;;;;14.97;55.00;101147.19;5085192;28;20052;-64
2023/01/01 09:44:07;;;;;;;;;;;;;;;15.00;54.51;101154.94;5085829;28;20430;-64
2023/01/01 09:46:35;;;;;;;;;;;;;;;15.04;54.65;101148.47;5017349;28;19925;-65
2023/01/01 09:49:05;;;;;;;;;;;;;;;15.07;54.62;101154.41;5070812;28;19921;-65
2023/01/01 09:51:33;;;;;;;;;;;;;;;15.12;54.33;101138.16;5085431;28;19951;-64
2023/01/01 09:54:03;;;;;;;;;;;;;;;15.15;54.54;101148.56;5085115;28;19916;-64
2023/01/01 09:56:29;;;;;;;;;;;;;;;15.21;54.48;101153.41;5073963;28;19920;-62
2023/01/01 09:58:57;;;;;;;;;;;;;;;15.26;54.51;101149.59;5078909;28;20019;-66
2023/01/01 10:01:35;;;;;;;;;;;;;;;15.28;54.52;101142.38;5086872;28;19923;-62
2023/01/01 10:04:29;;;;;;;;;;;;;;;15.24;54.54;101153.19;5086813;28;19927;-66
2023/01/01 10:07:00;;;;;;;;;;;;;;;15.26;54.28;101152.22;4979583;28;19918;-63
2023/01/01 10:09:37;;;;;;;;;;;;;;;15.29;54.38;101159.97;5082742;28;19919;-65
2023/01/01 10:12:19;;;;;;;;;;;;;;;15.30;54.28;101159.84;5085551;28;19924;-64
2023/01/01 10:14:48;;;;;;;;;;;;;;;15.32;54.25;101170.38;5085121;28;19916;-61
2023/01/01 10:17:16;;;;;;;;;;;;;;;15.34;54.39;101168.47;5082792;28;19923;-60
2023/01/01 10:19:49;;;;;;;;;;;;;;;15.35;53.98;101167.50;5083859;28;19920;-60
2023/01/01 10:22:19;;;;;;;;;;;;;;;15.36;54.12;101156.78;5083752;28;19950;-65
2023/01/01 10:24:48;;;;;;;;;;;;;;;15.34;54.00;101171.94;5085966;28;20368;-63
2023/01/01 10:27:36;;;;;;;;;;;;;;;15.36;53.91;101174.47;5087237;28;19924;-66
2023/01/01 10:30:05;;;;;;;;;;;;;;;15.34;53.85;101179.91;5079448;28;19924;-66
2023/01/01 10:32:32;;;;;;;;;;;;;;;15.34;54.06;101173.75;5075880;28;19930;-65
2023/01/01 10:34:59;;;;;;;;;;;;;;;15.35;53.73;101180.75;5078355;28;20323;-65
2023/01/01 10:37:27;;;;;;;;;;;;;;;15.36;53.82;101187.72;5081512;28;19916;-65
2023/01/01 10:39:52;;;;;;;;;;;;;;;15.37;53.79;101184.13;5075529;28;19931;-66
2023/01/01 10:42:18;;;;;;;;;;;;;;;15.41;53.71;101188.25;5080039;28;19920;-66
2023/01/01 10:44:43;;;;;;;;;;;;;;;15.43;53.46;101198.78;5081893;28;19912;-64
2023/01/01 10:47:23;;;;;;;;;;;;;;;15.45;53.37;101196.84;5087170;28;19985;-64
2023/01/01 10:49:59;;;;;;;;;;;;;;;15.47;53.30;101194.94;5076152;28;19931;-65
2023/01/01 10:52:26;;;;;;;;;;;;;;;15.50;53.10;101179.63;5074200;28;19931;-65
2023/01/01 10:54:51;;;;;;;;;;;;;;;15.50;53.18;101195.53;5067203;28;19924;-66
2023/01/01 10:57:19;;;;;;;;;;;;;;;15.50;53.23;101200.84;5072700;28;20354;-65
2023/01/01 10:59:45;;;;;;;;;;;;;;;15.53;53.08;101182.06;5061793;28;19920;-66
2023/01/01 11:02:16;;;;;;;;;;;;;;;15.53;52.75;101192.69;5067156;28;20311;-66
2023/01/01 11:04:41;;;;;;;;;;;;;;;15.57;52.83;101187.16;5071628;28;19968;-64
2023/01/01 11:07:07;;;;;;;;;;;;;;;15.60;52.69;101194.91;5073327;28;20022;-64
2023/01/01 11:09:37;;;;;;;;;;;;;;;15.62;52.75;101190.34;5080736;28;20007;-64
2023/01/01 11:12:04;;;;;;;;;;;;;;;15.63;52.69;101202.66;5084206;28;20363;-66
2023/01/01 11:14:29;;;;;;;;;;;;;;;15.62;52.51;101191.19;5090226;28;19920;-63
2023/01/01 11:16:56;;;;;;;;;;;;;;;15.64;52.68;101201.69;5078800;28;19931;-65
2023/01/01 11:19:37;;;;;;;;;;;;;;;15.65;52.30;101195.44;5078546;28;20011;-64
2023/01/01 11:22:03;;;;;;;;;;;;;;;15.67;52.28;101212.94;5081427;28;20614;-64
2023/01/01 11:24:32;;;;;;;;;;;;;;;15.70;52.41;101222.47;5079273;28;20006;-64
2023/01/01 11:27:35;;;;;;;;;;;;;;;15.71;52.68;101229.47;5084732;28;19920;-63
2023/01/01 11:30:36;;;;;;;;;;;;;;;15.70;52.76;101222.47;5012536;28;19921;-64
2023/01/01 11:33:03;;;;;;;;;;;;;;;15.71;52.54;101229.47;4962195;28;19922;-64
2023/01/01 11:35:48;;;;;;;;;;;;;;;15.71;52.57;101229.47;5048705;28;19923;-64
2023/01/01 11:38:18;;;;;;;;;;;;;;;15.74;52.45;101213.31;5078377;28;19986;-65
2023/01/01 11:40:45;;;;;;;;;;;;;;;15.72;52.22;101209.94;5083242;28;19924;-64
2023/01/01 11:43:14;;;;;;;;;;;;;;;15.74;52.10;101215.97;5076269;28;20316;-64
2023/01/01 11:45:41;;;;;;;;;;;;;;;15.76;52.30;101234.44;5081990;28;19916;-64
2023/01/01 11:48:18;;;;;;;;;;;;;;;15.78;52.46;101230.72;5083837;28;20553;-62
2023/01/01 11:50:54;;;;;;;;;;;;;;;15.79;52.23;101221.81;5081945;28;20358;-64
2023/01/01 11:53:22;;;;;;;;;;;;;;;15.80;52.44;101225.31;5069620;28;20399;-65
2023/01/01 11:55:51;;;;;;;;;;;;;;;15.79;52.43;101242.19;5078927;28;20387;-65
2023/01/01 11:58:29;;;;;;;;;;;;;;;15.78;52.46;101233.38;5074231;28;19925;-62
2023/01/01 12:00:55;;;;;;;;;;;;;;;15.78;52.46;101236.03;5072163;28;19985;-63
2023/01/01 12:03:47;;;;;;;;;;;;;;;15.79;52.33;101243.03;5069471;28;19928;-65
2023/01/01 12:06:29;;;;;;;;;;;;;;;15.79;52.39;101255.44;5061093;28;19924;-66
2023/01/01 12:09:30;;;;;;;;;;;;;;;15.77;52.16;101255.56;5066390;28;19920;-64
2023/01/01 12:12:04;;;;;;;;;;;;;;;15.77;52.54;101244.94;5031731;28;21123;-65
2023/01/01 12:14:43;;;;;;;;;;;;;;;15.80;52.41;101255.34;5073058;28;19920;-65
2023/01/01 12:17:13;;;;;;;;;;;;;;;15.80;52.14;101236.78;5079410;28;19926;-64
2023/01/01 12:19:42;;;;;;;;;;;;;;;15.80;52.18;101259.78;5079736;28;19920;-65
2023/01/01 12:22:13;;;;;;;;;;;;;;;15.81;52.23;101246.41;5079148;28;20533;-64
2023/01/01 12:24:39;;;;;;;;;;;;;;;15.80;52.05;101250.03;5082603;28;19920;-65
2023/01/01 12:27:23;;;;;;;;;;;;;;;15.87;52.22;101244.31;5060241;28;19926;-64
2023/01/01 12:29:51;;;;;;;;;;;;;;;15.82;52.14;101248.09;5082455;28;19934;-65
2023/01/01 12:32:19;;;;;;;;;;;;;;;15.84;52.25;101259.47;5080141;28;19919;-65
2023/01/01 12:34:50;;;;;;;;;;;;;;;15.85;52.38;101233.81;5079211;28;20006;-64
2023/01/01 12:37:26;;;;;;;;;;;;;;;15.82;52.25;101221.56;5079039;28;20062;-66
2023/01/01 12:39:51;;;;;;;;;;;;;;;15.79;52.30;101237.72;5082271;28;19927;-64
2023/01/01 12:42:19;;;;;;;;;;;;;;;15.79;52.68;101240.38;5079800;28;19920;-63
2023/01/01 12:44:56;;;;;;;;;;;;;;;15.77;52.57;101246.75;5085368;28;20430;-64
2023/01/01 12:47:27;;;;;;;;;;;;;;;15.76;52.79;101253.00;5087654;28;19926;-65
2023/01/01 12:50:11;;;;;;;;;;;;;;;15.74;52.84;101250.47;5085007;28;19927;-66